createdAt,value
2016-05-06T00:00:21.212Z,75.19
2016-05-06T00:01:21.246Z,75.85
2016-05-06T00:02:21.859Z,75.47
2016-05-06T00:03:34.065Z,76.14
2016-05-06T00:04:21.302Z,75.67
2016-05-06T00:05:40.538Z,75.76
2016-05-06T00:06:21.338Z,75.76
2016-05-06T00:07:52.637Z,75.19
2016-05-06T00:08:47.047Z,75.57
2016-05-06T00:10:22.239Z,75.28
2016-05-06T00:11:21.257Z,75.28
2016-05-06T00:12:52.730Z,74.62
2016-05-06T00:13:24.451Z,74.8
2016-05-06T00:14:24.469Z,74.52
2016-05-06T00:15:24.502Z,74.8
2016-05-06T00:16:30.787Z,74.62
2016-05-06T00:17:30.898Z,74.62
2016-05-06T00:18:24.558Z,74.14
2016-05-06T00:19:24.404Z,74.43
2016-05-06T00:20:24.578Z,74.52
2016-05-06T00:21:24.591Z,74.33
2016-05-06T00:22:24.671Z,74.14
2016-05-06T00:23:37.377Z,74.52
2016-05-06T00:24:24.660Z,74.14
2016-05-06T00:25:24.679Z,74.71
2016-05-06T00:26:24.698Z,74.62
2016-05-06T00:27:43.919Z,74.04
2016-05-06T00:28:27.562Z,74.14
2016-05-06T00:29:27.752Z,74.71
2016-05-06T00:30:27.771Z,74.52
2016-05-06T00:31:27.773Z,74.62
2016-05-06T00:32:27.823Z,74.52
2016-05-06T00:33:27.842Z,74.8
2016-05-06T00:34:35.515Z,74.71
2016-05-06T00:35:27.707Z,74.71
2016-05-06T00:36:27.881Z,75.09
2016-05-06T00:37:27.898Z,74.71
2016-05-06T00:38:29.323Z,75.19
2016-05-06T00:39:34.201Z,75.28
2016-05-06T00:40:27.938Z,74.99
2016-05-06T00:41:40.706Z,75.19
2016-05-06T00:42:28.037Z,75.19
2016-05-06T00:43:27.994Z,75.19
2016-05-06T00:44:28.011Z,75.28
2016-05-06T00:45:28.030Z,75.85
2016-05-06T00:46:27.985Z,75.57
2016-05-06T00:47:27.910Z,75.28
2016-05-06T00:48:28.100Z,75.76
2016-05-06T00:49:34.385Z,75.76
2016-05-06T00:50:28.121Z,75.76
2016-05-06T00:51:47.343Z,75.95
2016-05-06T00:52:27.986Z,75.95
2016-05-06T00:53:28.005Z,75.95
2016-05-06T00:54:40.929Z,75.85
2016-05-06T00:55:29.869Z,75.85
2016-05-06T00:56:28.216Z,76.04
2016-05-06T00:57:40.812Z,75.95
2016-05-06T00:58:41.002Z,75.85
2016-05-06T00:59:28.286Z,76.04
2016-05-06T01:00:41.040Z,75.85
2016-05-06T01:01:28.307Z,75.85
2016-05-06T01:02:28.326Z,76.04
2016-05-06T01:03:41.093Z,76.33
2016-05-06T01:04:28.393Z,76.42
2016-05-06T01:05:28.381Z,76.33
2016-05-06T01:06:28.415Z,76.42
2016-05-06T01:08:43.482Z,77.19
2016-05-06T01:09:43.392Z,77
2016-05-06T01:10:56.300Z,76.9
2016-05-06T01:11:56.428Z,77.09
2016-05-06T01:12:43.539Z,76.96
2016-05-06T01:13:43.575Z,76.96
2016-05-06T01:14:56.342Z,77.37
2016-05-06T01:15:43.611Z,77
2016-05-06T01:17:02.691Z,77.28
2016-05-06T01:17:43.647Z,76.86
2016-05-06T01:18:43.666Z,76.86
2016-05-06T01:19:43.669Z,77.56
2016-05-06T01:20:56.436Z,77.05
2016-05-06T01:21:43.704Z,76.9
2016-05-06T01:22:43.739Z,77.24
2016-05-06T01:23:43.585Z,77.28
2016-05-06T01:24:43.775Z,77.15
2016-05-06T01:25:50.184Z,77.05
2016-05-06T01:28:02.127Z,77.62
2016-05-06T01:29:02.115Z,77.15
2016-05-06T01:30:02.148Z,77.15
2016-05-06T01:31:02.166Z,77.62
2016-05-06T01:32:02.185Z,77.24
2016-05-06T01:33:02.203Z,77.24
2016-05-06T01:34:02.206Z,77.62
2016-05-06T01:35:02.301Z,77.72
2016-05-06T01:36:02.852Z,77.81
2016-05-06T01:37:14.995Z,77.53
2016-05-06T01:38:02.278Z,77.81
2016-05-06T01:39:21.520Z,78.19
2016-05-06T01:40:02.770Z,77.91
2016-05-06T01:41:28.008Z,78.19
2016-05-06T01:42:02.352Z,77.72
2016-05-06T01:43:02.387Z,77.53
2016-05-06T01:44:02.389Z,77.81
2016-05-06T01:45:03.017Z,77.72
2016-05-06T01:46:02.269Z,77.53
2016-05-06T01:47:02.444Z,78.19
2016-05-06T01:48:28.122Z,77.91
2016-05-06T01:49:12.075Z,77.91
2016-05-06T01:50:12.092Z,77.62
2016-05-06T01:51:13.532Z,77.72
2016-05-06T01:52:12.130Z,77.91
2016-05-06T01:53:12.148Z,77.81
2016-05-06T01:54:12.150Z,77.81
2016-05-06T01:55:12.199Z,77.53
2016-05-06T01:56:12.219Z,77.91
2016-05-06T01:57:12.221Z,77.43
2016-05-06T01:58:18.505Z,77.81
2016-05-06T01:59:13.679Z,77.81
2016-05-06T02:00:24.997Z,78
2016-05-06T02:01:12.122Z,78
2016-05-06T02:02:37.987Z,78.29
2016-05-06T02:03:21.801Z,78.48
2016-05-06T02:04:21.852Z,78.29
2016-05-06T02:05:21.839Z,78.29
2016-05-06T02:06:21.857Z,78.19
2016-05-06T02:07:28.140Z,78.29
2016-05-06T02:08:21.737Z,78.29
2016-05-06T02:09:34.771Z,78.57
2016-05-06T02:10:21.914Z,78.57
2016-05-06T02:11:21.933Z,78.38
2016-05-06T02:12:34.733Z,78.67
2016-05-06T02:13:22.001Z,78.29
2016-05-06T02:14:22.003Z,78.77
2016-05-06T02:15:21.850Z,78.67
2016-05-06T02:16:34.790Z,78.77
2016-05-06T02:17:22.059Z,79.2
2016-05-06T02:18:22.077Z,79.05
2016-05-06T02:19:22.095Z,78.77
2016-05-06T02:20:53.395Z,78.77
2016-05-06T02:21:31.725Z,79.24
2016-05-06T02:22:31.744Z,79.01
2016-05-06T02:23:31.765Z,78.96
2016-05-06T02:24:31.784Z,78.67
2016-05-06T02:25:32.178Z,78.86
2016-05-06T02:26:44.556Z,78.63
2016-05-06T02:27:32.042Z,79.58
2016-05-06T02:28:31.842Z,79.39
2016-05-06T02:29:31.860Z,79.3
2016-05-06T02:30:31.879Z,79.49
2016-05-06T02:31:31.881Z,79.39
2016-05-06T02:32:31.914Z,79.39
2016-05-06T02:33:31.933Z,79.49
2016-05-06T02:34:44.686Z,79.2
2016-05-06T02:35:31.970Z,79.2
2016-05-06T02:36:31.988Z,79.68
2016-05-06T02:37:32.008Z,79.77
2016-05-06T02:38:32.010Z,79.86
2016-05-06T02:39:31.872Z,79.86
2016-05-06T02:40:32.311Z,79.77
2016-05-06T02:41:32.079Z,79.39
2016-05-06T02:42:44.816Z,79.96
2016-05-06T02:43:32.117Z,80.34
2016-05-06T02:44:32.104Z,80.15
2016-05-06T02:45:32.153Z,80.34
2016-05-06T02:46:32.157Z,80.24
2016-05-06T02:47:32.034Z,80.24
2016-05-06T02:48:51.395Z,80.53
2016-05-06T02:49:32.195Z,80.63
2016-05-06T02:50:32.230Z,80.63
2016-05-06T02:51:44.888Z,80.82
2016-05-06T02:52:41.859Z,80.91
2016-05-06T02:53:41.722Z,81.1
2016-05-06T02:54:48.161Z,81.2
2016-05-06T02:55:42.446Z,81.01
2016-05-06T02:56:41.933Z,81.48
2016-05-06T02:57:41.951Z,81.29
2016-05-06T02:58:42.001Z,81.67
2016-05-06T02:59:42.192Z,82.05
2016-05-06T03:00:42.006Z,81.86
2016-05-06T03:01:42.024Z,81.96
2016-05-06T03:02:42.043Z,81.86
2016-05-06T03:03:54.795Z,82.34
2016-05-06T03:04:42.080Z,82.15
2016-05-06T03:06:01.300Z,82.62
2016-05-06T03:06:42.100Z,82.24
2016-05-06T03:08:07.634Z,82.62
2016-05-06T03:08:42.152Z,82.53
2016-05-06T03:09:41.983Z,83
2016-05-06T03:10:42.346Z,82.91
2016-05-06T03:11:42.270Z,82.71
2016-05-06T03:12:42.194Z,83.06
2016-05-06T03:13:48.510Z,83
2016-05-06T03:14:42.106Z,83.06
2016-05-06T03:16:01.313Z,83.25
2016-05-06T03:16:57.987Z,83.44
2016-05-06T03:18:10.958Z,83.29
2016-05-06T03:19:17.195Z,83.34
2016-05-06T03:20:16.604Z,83.1
2016-05-06T03:20:45.341Z,83.44
2016-05-06T03:21:45.343Z,83.44
2016-05-06T03:22:45.424Z,83.44
2016-05-06T03:23:45.381Z,83.19
2016-05-06T03:25:04.602Z,83.39
2016-05-06T03:25:46.151Z,83.19
2016-05-06T03:26:45.435Z,83.29
2016-05-06T03:27:45.454Z,82.91
2016-05-06T03:28:45.487Z,82.81
2016-05-06T03:29:45.490Z,83.29
2016-05-06T03:30:45.493Z,83.19
2016-05-06T03:31:58.245Z,82.62
2016-05-06T03:32:45.545Z,83.34
2016-05-06T03:33:58.267Z,83.19
2016-05-06T03:34:45.581Z,82.81
2016-05-06T03:36:04.788Z,82.91
2016-05-06T03:36:46.228Z,82.71
2016-05-06T03:37:45.637Z,82.91
2016-05-06T03:38:58.374Z,82.81
2016-05-06T03:39:45.658Z,82.62
2016-05-06T03:41:11.593Z,83
2016-05-06T03:42:27.439Z,83
2016-05-06T03:43:27.353Z,83
2016-05-06T03:44:40.104Z,83.19
2016-05-06T03:45:27.388Z,83.25
2016-05-06T03:46:40.141Z,82.71
2016-05-06T03:47:28.847Z,83
2016-05-06T03:48:46.693Z,82.81
2016-05-06T03:49:46.649Z,82.91
2016-05-06T03:50:27.479Z,82.71
2016-05-06T03:52:42.985Z,82.43
2016-05-06T03:53:42.831Z,82.81
2016-05-06T03:54:43.225Z,82.43
2016-05-06T03:55:49.430Z,82.34
2016-05-06T03:56:46.402Z,82.43
2016-05-06T03:58:05.623Z,82.43
2016-05-06T03:58:52.720Z,82.53
2016-05-06T04:00:11.957Z,82.34
2016-05-06T04:00:46.460Z,82.24
2016-05-06T04:02:17.775Z,82.24
2016-05-06T04:02:59.292Z,81.58
2016-05-06T04:04:52.814Z,81.86
2016-05-06T04:05:46.550Z,81.48
2016-05-06T04:07:01.632Z,81.96
2016-05-06T04:08:01.698Z,81.67
2016-05-06T04:09:01.669Z,81.67
2016-05-06T04:10:01.733Z,81.67
2016-05-06T04:11:01.550Z,81.48
2016-05-06T04:12:02.988Z,81.58
2016-05-06T04:13:08.008Z,81.67
2016-05-06T04:14:14.338Z,81.38
2016-05-06T04:15:20.981Z,81.29
2016-05-06T04:16:27.471Z,81.38
2016-05-06T04:17:33.114Z,81.67
2016-05-06T04:19:01.851Z,80.82
2016-05-06T04:20:01.855Z,81.2
2016-05-06T04:21:01.872Z,80.76
2016-05-06T04:22:02.500Z,80.47
2016-05-06T04:23:01.940Z,80.66
2016-05-06T04:24:01.943Z,80.38
2016-05-06T04:25:02.540Z,80.29
2016-05-06T04:26:01.807Z,80.19
2016-05-06T04:27:01.982Z,80.29
2016-05-06T04:28:02.001Z,79.81
2016-05-06T04:29:14.629Z,80.1
2016-05-06T04:30:02.037Z,79.62
2016-05-06T04:31:21.243Z,79.52
2016-05-06T04:32:11.340Z,79.81
2016-05-06T04:33:14.499Z,79.33
2016-05-06T04:34:14.517Z,79.14
2016-05-06T04:36:55.290Z,78.77
2016-05-06T04:37:29.622Z,78.86
2016-05-06T04:38:29.655Z,78.57
2016-05-06T04:39:29.673Z,78.19
2016-05-06T04:40:42.411Z,78.48
2016-05-06T04:41:42.508Z,78.42
2016-05-06T04:42:48.760Z,77.95
2016-05-06T04:43:48.934Z,78.23
2016-05-06T04:44:55.437Z,78.23
2016-05-06T04:45:55.439Z,78.33
2016-05-06T04:46:29.802Z,78.42
2016-05-06T04:47:29.805Z,78.42
2016-05-06T04:48:39.136Z,77.85
2016-05-06T04:49:39.138Z,78.42
2016-05-06T04:50:39.422Z,78.14
2016-05-06T04:51:39.440Z,78.42
2016-05-06T04:52:52.083Z,78.04
2016-05-06T04:53:45.727Z,78.14
2016-05-06T04:54:39.480Z,77.85
2016-05-06T04:55:52.420Z,78.23
2016-05-06T04:56:39.469Z,78.04
2016-05-06T04:57:58.644Z,77.37
2016-05-06T04:58:39.459Z,77.76
2016-05-06T05:00:05.134Z,77.76
2016-05-06T05:00:49.089Z,77.56
2016-05-06T05:02:08.296Z,77
2016-05-06T05:02:48.954Z,77.22
2016-05-06T05:04:14.816Z,76.94
2016-05-06T05:04:55.429Z,76.56
2016-05-06T05:06:49.168Z,76.37
2016-05-06T05:07:49.202Z,76.08
2016-05-06T05:08:49.252Z,75.7
2016-05-06T05:09:49.254Z,75.23
2016-05-06T05:11:02.484Z,74.27
2016-05-06T05:11:49.361Z,72.88
2016-05-06T05:13:08.629Z,69.29
2016-05-06T05:13:49.492Z,65.55
2016-05-06T05:16:04.686Z,57.77
2016-05-06T05:17:04.722Z,55.96
2016-05-06T05:18:17.492Z,54.55
2016-05-06T05:19:04.792Z,54.36
2016-05-06T05:20:30.514Z,52.28
2016-05-06T05:21:04.873Z,51.61
2016-05-06T05:22:04.898Z,51.13
2016-05-06T05:23:04.985Z,49.62
2016-05-06T05:24:04.962Z,47.56
2016-05-06T05:25:04.831Z,45.18
2016-05-06T05:26:04.993Z,43.79
2016-05-06T05:27:05.030Z,42.44
2016-05-06T05:28:05.050Z,40.83
2016-05-06T05:29:05.056Z,38.76
2016-05-06T05:30:05.107Z,37.74
2016-05-06T05:31:05.111Z,38.1
2016-05-06T05:32:05.146Z,37.91
2016-05-06T05:33:05.165Z,38.1
2016-05-06T05:34:05.200Z,37.43
2016-05-06T05:35:06.625Z,37.06
2016-05-06T05:36:05.285Z,36.41
2016-05-06T05:37:05.272Z,35.08
2016-05-06T05:38:05.307Z,34.5
2016-05-06T05:39:05.325Z,33.55
2016-05-06T05:40:05.344Z,32.62
2016-05-06T05:41:05.394Z,32.52
2016-05-06T05:42:05.397Z,32.33
2016-05-06T05:43:05.555Z,32.81
2016-05-06T05:44:05.464Z,33.47
2016-05-06T05:45:05.483Z,33.55
2016-05-06T05:46:05.532Z,33.66
2016-05-06T05:47:11.801Z,33.26
2016-05-06T05:48:05.397Z,32.99
2016-05-06T05:49:05.588Z,33.47
2016-05-06T05:50:05.605Z,33.76
2016-05-06T05:51:05.624Z,34.22
2016-05-06T05:52:05.657Z,34.13
2016-05-06T05:53:05.520Z,34.14
2016-05-06T05:54:05.710Z,33.37
2016-05-06T05:55:05.744Z,33.2
2016-05-06T05:56:05.621Z,33.1
2016-05-06T05:57:05.828Z,33.2
2016-05-06T05:58:05.831Z,33.76
2016-05-06T05:59:05.864Z,33.66
2016-05-06T06:00:05.882Z,33.28
2016-05-06T06:01:05.745Z,32.62
2016-05-06T06:02:05.934Z,32.15
2016-05-06T06:03:05.984Z,31.98
2016-05-06T06:04:09.034Z,31.96
2016-05-06T06:05:06.036Z,32.17
2016-05-06T06:06:06.070Z,31.38
2016-05-06T06:07:06.089Z,29.77
2016-05-06T06:08:06.139Z,28.85
2016-05-06T06:09:06.141Z,29.3
2016-05-06T06:10:06.175Z,29.02
2016-05-06T06:11:07.630Z,30.36
2016-05-06T06:12:06.243Z,30.93
2016-05-06T06:13:06.261Z,30.73
2016-05-06T06:14:06.311Z,31.12
2016-05-06T06:15:19.064Z,31.12
2016-05-06T06:16:19.129Z,31.52
2016-05-06T06:17:06.396Z,31.59
2016-05-06T06:18:06.463Z,30.93
2016-05-06T06:19:08.308Z,30.46
2016-05-06T06:20:06.530Z,30.08
2016-05-06T06:21:06.502Z,30.18
2016-05-06T06:22:06.582Z,31.23
2016-05-06T06:23:06.569Z,31.99
2016-05-06T06:24:06.603Z,30.55
2016-05-06T06:25:06.654Z,28.45
2016-05-06T06:26:06.749Z,27.22
2016-05-06T06:27:06.799Z,26.96
2016-05-06T06:28:06.739Z,26.1
2016-05-06T06:29:06.757Z,25.71
2016-05-06T06:30:06.791Z,25.04
2016-05-06T06:31:06.826Z,26.11
2016-05-06T06:32:06.843Z,26.48
2016-05-06T06:33:06.877Z,26.68
2016-05-06T06:34:06.912Z,27.93
2016-05-06T06:35:06.961Z,27.92
2016-05-06T06:36:06.963Z,26.85
2016-05-06T06:37:06.998Z,25.71
2016-05-06T06:38:07.031Z,25.25
2016-05-06T06:39:07.066Z,23.52
2016-05-06T06:40:07.131Z,22.2
2016-05-06T06:41:07.383Z,21.81
2016-05-06T06:42:07.167Z,22.78
2016-05-06T06:43:07.201Z,23.74
2016-05-06T06:44:07.219Z,24.98
2016-05-06T06:45:07.285Z,25.25
2016-05-06T06:46:07.288Z,23.91
2016-05-06T06:47:07.416Z,23.45
2016-05-06T06:48:07.199Z,24.99
2016-05-06T06:49:07.405Z,27.39
2016-05-06T06:50:07.266Z,28.33
2016-05-06T06:51:07.457Z,28.9
2016-05-06T06:52:07.507Z,30.24
2016-05-06T06:53:07.525Z,31.28
2016-05-06T06:54:20.277Z,32.89
2016-05-06T06:55:07.577Z,33.45
2016-05-06T06:56:07.736Z,33.75
2016-05-06T06:57:07.645Z,33.47
2016-05-06T06:58:07.695Z,32.51
2016-05-06T06:59:07.697Z,31.74
2016-05-06T07:00:07.748Z,30.69
2016-05-06T07:01:07.781Z,30.23
2016-05-06T07:02:07.799Z,29.94
2016-05-06T07:03:14.115Z,29.94
2016-05-06T07:04:07.867Z,29.64
2016-05-06T07:05:07.900Z,28.98
2016-05-06T07:06:07.919Z,28.89
2016-05-06T07:07:07.953Z,28.7
2016-05-06T07:08:07.987Z,28.13
2016-05-06T07:09:08.052Z,29.1
2016-05-06T07:10:08.056Z,28.89
2016-05-06T07:11:09.605Z,29.95
2016-05-06T07:12:08.154Z,30.6
2016-05-06T07:13:20.891Z,31.86
2016-05-06T07:14:14.441Z,31.16
2016-05-06T07:15:08.240Z,30.02
2016-05-06T07:16:08.086Z,29.64
2016-05-06T07:17:08.293Z,28.89
2016-05-06T07:18:08.311Z,28.22
2016-05-06T07:19:08.345Z,28.72
2016-05-06T07:20:08.379Z,28.7
2016-05-06T07:21:09.804Z,28.89
2016-05-06T07:22:08.431Z,28.7
2016-05-06T07:23:08.485Z,29.76
2016-05-06T07:24:14.770Z,31.18
2016-05-06T07:25:21.272Z,31.46
2016-05-06T07:26:11.525Z,32.23
2016-05-06T07:27:08.449Z,31.83
2016-05-06T07:28:08.624Z,30.02
2016-05-06T07:29:08.673Z,29.08
2016-05-06T07:30:08.707Z,29
2016-05-06T07:31:08.726Z,29.08
2016-05-06T07:32:08.776Z,29
2016-05-06T07:33:08.779Z,29.76
2016-05-06T07:34:08.812Z,28.98
2016-05-06T07:35:08.689Z,28.98
2016-05-06T07:36:08.895Z,28.13
2016-05-06T07:37:08.914Z,27.07
2016-05-06T07:38:08.947Z,26.51
2016-05-06T07:39:08.981Z,25.93
2016-05-06T07:40:09.016Z,24.68
2016-05-06T07:41:09.112Z,24.9
2016-05-06T07:42:09.083Z,23.91
2016-05-06T07:43:09.180Z,23.55
2016-05-06T07:44:09.136Z,23.85
2016-05-06T07:45:21.919Z,22.78
2016-05-06T07:46:09.219Z,23.18
2016-05-06T07:47:09.253Z,22.79
2016-05-06T07:48:09.287Z,23.95
2016-05-06T07:49:09.306Z,25.86
2016-05-06T07:50:09.480Z,26.32
2016-05-06T07:51:09.388Z,25.74
2016-05-06T07:52:09.470Z,27
2016-05-06T07:53:09.441Z,26.71
2016-05-06T07:54:09.490Z,27.57
2016-05-06T07:55:09.509Z,27.86
2016-05-06T07:56:09.590Z,27.47
2016-05-06T07:57:09.577Z,27.1
2016-05-06T07:58:09.626Z,27
2016-05-06T07:59:09.490Z,28.36
2016-05-06T08:00:09.710Z,29.97
2016-05-06T08:01:22.509Z,32.36
2016-05-06T08:02:09.762Z,33.29
2016-05-06T08:03:09.843Z,35.12
2016-05-06T08:04:09.814Z,36.82
2016-05-06T08:05:09.864Z,38.33
2016-05-06T08:06:09.867Z,39.64
2016-05-06T08:07:09.917Z,41.19
2016-05-06T08:08:09.934Z,42.59
2016-05-06T08:09:09.828Z,44.31
2016-05-06T08:10:29.206Z,44.79
2016-05-06T08:11:09.896Z,45.73
2016-05-06T08:12:10.070Z,45.73
2016-05-06T08:13:10.088Z,45.25
2016-05-06T08:14:10.170Z,45.34
2016-05-06T08:15:10.157Z,46.21
2016-05-06T08:16:22.910Z,46.38
2016-05-06T08:17:22.958Z,46.55
2016-05-06T08:18:10.086Z,47.34
2016-05-06T08:19:10.261Z,48.66
2016-05-06T08:20:10.310Z,48.47
2016-05-06T08:21:10.173Z,49.15
2016-05-06T08:22:10.379Z,49.15
2016-05-06T08:23:10.241Z,49.12
2016-05-06T08:24:10.415Z,49.12
2016-05-06T08:25:10.434Z,48.93
2016-05-06T08:26:10.390Z,49.12
2016-05-06T08:27:10.345Z,49.05
2016-05-06T08:28:10.504Z,49.05
2016-05-06T08:29:10.523Z,47.8
2016-05-06T08:30:10.431Z,47.8
2016-05-06T08:31:10.465Z,47.99
2016-05-06T08:32:10.640Z,48.85
2016-05-06T08:33:10.659Z,48.47
2016-05-06T08:34:10.692Z,48.66
2016-05-06T08:35:23.445Z,46.95
2016-05-06T08:36:10.729Z,46.77
2016-05-06T08:37:10.762Z,46.09
2016-05-06T08:38:10.640Z,46.47
2016-05-06T08:39:10.814Z,46.86
2016-05-06T08:40:10.834Z,46.77
2016-05-06T08:41:13.055Z,46.86
2016-05-06T08:42:23.620Z,47.63
2016-05-06T08:43:10.919Z,47.61
2016-05-06T08:44:10.938Z,47.31
2016-05-06T08:45:30.191Z,47.31
2016-05-06T08:46:10.849Z,47.34
2016-05-06T08:47:11.024Z,48.02
2016-05-06T08:48:11.042Z,47.05
2016-05-06T08:49:42.360Z,47.53
2016-05-06T08:50:26.344Z,47.92
2016-05-06T08:51:26.207Z,47.92
2016-05-06T08:52:26.396Z,46.77
2016-05-06T08:53:26.416Z,47.34
2016-05-06T08:54:26.465Z,47.63
2016-05-06T08:55:26.405Z,47.92
2016-05-06T08:56:39.551Z,47.17
2016-05-06T08:57:26.520Z,47.17
2016-05-06T08:58:26.398Z,46.95
2016-05-06T08:59:26.432Z,46.95
2016-05-06T09:00:57.890Z,46.95
2016-05-06T09:01:29.468Z,47.24
2016-05-06T09:02:29.704Z,47.53
2016-05-06T09:03:42.414Z,47.82
2016-05-06T09:04:29.695Z,46.95
2016-05-06T09:05:29.729Z,46.19
2016-05-06T09:06:29.747Z,46.09
2016-05-06T09:07:29.781Z,47.15
2016-05-06T09:08:29.783Z,47.05
2016-05-06T09:09:29.833Z,46.5
2016-05-06T09:10:29.695Z,46.21
2016-05-06T09:11:29.948Z,46.31
2016-05-06T09:12:29.904Z,46.57
2016-05-06T09:13:29.922Z,46.67
2016-05-06T09:14:29.784Z,47.44
2016-05-06T09:15:29.958Z,47.34
2016-05-06T09:16:42.745Z,46.98
2016-05-06T09:17:30.042Z,46.69
2016-05-06T09:18:55.735Z,45.44
2016-05-06T09:19:39.722Z,45.27
2016-05-06T09:20:39.771Z,44.4
2016-05-06T09:22:05.463Z,44.59
2016-05-06T09:22:49.386Z,45.34
2016-05-06T09:24:08.623Z,45.73
2016-05-06T09:24:49.439Z,46.11
2016-05-06T09:25:49.458Z,46.21
2016-05-06T09:26:49.507Z,45.92
2016-05-06T09:27:49.510Z,45.65
2016-05-06T09:28:49.590Z,43.73
2016-05-06T09:29:49.546Z,43.54
2016-05-06T09:30:49.642Z,43.34
2016-05-06T09:31:49.614Z,43.44
2016-05-06T09:32:49.617Z,43.34
2016-05-06T09:33:49.666Z,43.34
2016-05-06T09:34:49.763Z,43.61
2016-05-06T09:35:49.718Z,43.41
2016-05-06T09:36:49.768Z,43.51
2016-05-06T09:37:49.943Z,43.9
2016-05-06T09:38:49.804Z,43.8
2016-05-06T09:39:49.839Z,43.54
2016-05-06T09:40:49.857Z,43.82
2016-05-06T09:41:49.891Z,43.63
2016-05-06T09:42:49.894Z,41.82
2016-05-06T09:43:49.943Z,41.92
2016-05-06T09:44:49.962Z,42.03
2016-05-06T09:45:49.980Z,41.82
2016-05-06T09:46:50.014Z,42.49
2016-05-06T09:47:50.033Z,41.84
2016-05-06T09:49:02.816Z,41.82
2016-05-06T09:49:50.068Z,41.72
2016-05-06T09:50:50.087Z,41.72
2016-05-06T09:51:49.964Z,41.53
2016-05-06T09:53:15.811Z,41.92
2016-05-06T09:53:50.174Z,42.02
2016-05-06T09:55:59.507Z,37.7
2016-05-06T09:57:31.072Z,36.25
2016-05-06T09:58:09.293Z,37.5
2016-05-06T09:59:09.312Z,37.89
2016-05-06T10:00:09.329Z,38.46
2016-05-06T10:01:09.208Z,38.37
2016-05-06T10:02:09.382Z,36.93
2016-05-06T10:03:12.415Z,36.83
2016-05-06T10:04:12.451Z,37.89
2016-05-06T10:05:12.484Z,38.93
2016-05-06T10:06:12.517Z,38.46
2016-05-06T10:07:12.521Z,37.12
2016-05-06T10:08:12.570Z,37.12
2016-05-06T10:09:12.589Z,37.31
2016-05-06T10:10:12.607Z,36.94
2016-05-06T10:11:14.703Z,36.36
2016-05-06T10:12:12.706Z,35.88
2016-05-06T10:13:25.443Z,35.61
2016-05-06T10:14:12.712Z,35.52
2016-05-06T10:15:12.745Z,34.45
2016-05-06T10:16:12.779Z,35.5
2016-05-06T10:17:12.781Z,35.88
2016-05-06T10:18:12.816Z,35.9
2016-05-06T10:19:14.256Z,36.38
2016-05-06T10:20:12.868Z,35.8
2016-05-06T10:21:12.903Z,34.36
2016-05-06T10:22:12.936Z,34.64
2016-05-06T10:23:12.986Z,35.03
2016-05-06T10:24:12.832Z,35.78
2016-05-06T10:25:13.006Z,36.48
2016-05-06T10:26:14.322Z,35.9
2016-05-06T10:27:13.777Z,36.57
2016-05-06T10:28:13.077Z,36.48
2016-05-06T10:29:13.111Z,34.16
2016-05-06T10:30:13.145Z,32.44
2016-05-06T10:31:13.179Z,32.73
2016-05-06T10:32:13.197Z,33.78
2016-05-06T10:33:13.216Z,34.06
2016-05-06T10:34:13.249Z,33.12
2016-05-06T10:35:13.268Z,33.4
2016-05-06T10:36:13.348Z,34.18
2016-05-06T10:37:13.164Z,34.66
2016-05-06T10:38:13.354Z,33.8
2016-05-06T10:39:13.372Z,33.6
2016-05-06T10:40:13.422Z,33.89
2016-05-06T10:41:13.893Z,34.18
2016-05-06T10:42:13.474Z,34.66
2016-05-06T10:43:13.570Z,33.14
2016-05-06T10:44:13.526Z,33.31
2016-05-06T10:45:13.545Z,32.73
2016-05-06T10:46:13.563Z,32.82
2016-05-06T10:47:13.597Z,33.7
2016-05-06T10:48:13.459Z,32.64
2016-05-06T10:49:13.633Z,32.44
2016-05-06T10:50:13.684Z,33.29
2016-05-06T10:51:13.530Z,33.58
2016-05-06T10:52:13.735Z,34.26
2016-05-06T10:53:13.738Z,34.26
2016-05-06T10:54:13.647Z,33.97
2016-05-06T10:55:13.806Z,34.36
2016-05-06T10:56:13.747Z,34.84
2016-05-06T10:57:13.858Z,34.94
2016-05-06T10:58:20.158Z,33.68
2016-05-06T10:59:13.910Z,34.16
2016-05-06T11:00:33.164Z,33.48
2016-05-06T11:01:13.978Z,33.02
2016-05-06T11:02:13.982Z,33.12
2016-05-06T11:03:14.109Z,33.31
2016-05-06T11:04:14.049Z,33.04
2016-05-06T11:05:13.973Z,31.68
2016-05-06T11:06:13.945Z,31.78
2016-05-06T11:07:14.135Z,33.31
2016-05-06T11:08:14.169Z,32.54
2016-05-06T11:09:14.218Z,32.46
2016-05-06T11:10:14.237Z,31.78
2016-05-06T11:11:14.115Z,31.4
2016-05-06T11:12:14.305Z,32.17
2016-05-06T11:13:14.276Z,32.75
2016-05-06T11:14:14.342Z,32.34
2016-05-06T11:15:14.329Z,30.43
2016-05-06T11:16:14.394Z,31.1
2016-05-06T11:17:14.397Z,31.78
2016-05-06T11:18:14.446Z,31.78
2016-05-06T11:19:14.448Z,31.01
2016-05-06T11:20:14.311Z,30.14
2016-05-06T11:21:14.517Z,31.1
2016-05-06T11:22:14.536Z,30.91
2016-05-06T11:23:14.553Z,31.3
2016-05-06T11:24:14.586Z,31.78
2016-05-06T11:25:14.700Z,30.91
2016-05-06T11:26:14.655Z,30.25
2016-05-06T11:27:14.674Z,30.24
2016-05-06T11:28:14.692Z,30.82
2016-05-06T11:29:14.929Z,31.1
2016-05-06T11:30:14.744Z,31.1
2016-05-06T11:31:14.810Z,30.33
2016-05-06T11:32:14.796Z,30.52
2016-05-06T11:33:14.846Z,30.91
2016-05-06T11:34:14.864Z,30.9
2016-05-06T11:35:14.882Z,31.38
2016-05-06T11:36:14.777Z,29.85
2016-05-06T11:37:14.951Z,29.93
2016-05-06T11:38:14.968Z,29.08
2016-05-06T11:39:14.988Z,30.24
2016-05-06T11:40:15.021Z,29.94
2016-05-06T11:41:27.790Z,30.14
2016-05-06T11:42:15.370Z,30.52
2016-05-06T11:43:34.810Z,31.1
2016-05-06T11:44:15.298Z,31.1
2016-05-06T11:45:40.987Z,31.01
2016-05-06T11:46:15.412Z,29.96
2016-05-06T11:47:41.259Z,30.25
2016-05-06T11:48:21.761Z,30.35
2016-05-06T11:49:15.373Z,30.15
2016-05-06T11:50:15.407Z,30.05
2016-05-06T11:51:15.426Z,30.63
2016-05-06T11:52:28.178Z,31.02
2016-05-06T11:53:16.009Z,31.12
2016-05-06T11:54:41.106Z,32.38
2016-05-06T11:55:24.967Z,31.7
2016-05-06T11:56:34.673Z,32.18
2016-05-06T11:57:34.660Z,31.88
2016-05-06T11:58:34.539Z,30.14
2016-05-06T11:59:34.713Z,30.62
2016-05-06T12:00:34.949Z,30.91
2016-05-06T12:01:47.531Z,30.72
2016-05-06T12:02:34.814Z,30.52
2016-05-06T12:03:53.882Z,31.2
2016-05-06T12:04:34.710Z,31.3
2016-05-06T12:05:34.886Z,31.68
2016-05-06T12:06:38.060Z,31.68
2016-05-06T12:07:37.937Z,31.12
2016-05-06T12:08:38.113Z,30.15
2016-05-06T12:09:38.162Z,30.52
2016-05-06T12:10:37.993Z,30.52
2016-05-06T12:11:38.307Z,30.24
2016-05-06T12:12:38.232Z,30.33
2016-05-06T12:13:39.673Z,30.14
2016-05-06T12:14:38.268Z,30.25
2016-05-06T12:15:38.303Z,30.35
2016-05-06T12:16:38.336Z,29.77
2016-05-06T12:17:38.355Z,27.73
2016-05-06T12:18:38.389Z,27.55
2016-05-06T12:19:38.407Z,27.93
2016-05-06T12:20:38.535Z,28.13
2016-05-06T12:21:38.459Z,28.14
2016-05-06T12:22:38.493Z,28.51
2016-05-06T12:23:38.512Z,28.51
2016-05-06T12:24:38.561Z,28.31
2016-05-06T12:25:38.580Z,27.26
2016-05-06T12:26:38.458Z,28.03
2016-05-06T12:27:38.632Z,27.26
2016-05-06T12:28:39.259Z,27.75
2016-05-06T12:29:38.683Z,27.75
2016-05-06T12:30:38.719Z,28.8
2016-05-06T12:31:38.752Z,28.99
2016-05-06T12:32:38.630Z,29.77
2016-05-06T12:33:38.820Z,29.96
2016-05-06T12:34:45.088Z,28.91
2016-05-06T12:35:51.591Z,27.85
2016-05-06T12:36:38.874Z,28.8
2016-05-06T12:37:38.894Z,28.81
2016-05-06T12:38:38.927Z,27.56
2016-05-06T12:39:38.960Z,27.46
2016-05-06T12:40:38.980Z,27.25
2016-05-06T12:41:39.529Z,27.06
2016-05-06T12:42:38.890Z,26.67
2016-05-06T12:43:39.050Z,27.25
2016-05-06T12:44:39.146Z,27.46
2016-05-06T12:45:39.118Z,27.46
2016-05-06T12:46:51.917Z,27.25
2016-05-06T12:47:39.170Z,27.35
2016-05-06T12:49:04.863Z,28.04
2016-05-06T12:49:48.816Z,27.56
2016-05-06T12:50:48.757Z,28.04
2016-05-06T12:53:39.998Z,26.78
2016-05-06T12:54:04.251Z,27.15
2016-05-06T12:55:13.754Z,25.81
2016-05-06T12:56:10.866Z,25.99
2016-05-06T12:57:04.181Z,25.62
2016-05-06T12:58:04.372Z,26.57
2016-05-06T12:59:04.390Z,26.19
2016-05-06T13:00:04.424Z,26.09
2016-05-06T13:01:04.442Z,26.57
2016-05-06T13:02:17.055Z,26.59
2016-05-06T13:03:04.494Z,26.3
2016-05-06T13:04:04.669Z,27.36
2016-05-06T13:05:04.578Z,27.46
2016-05-06T13:06:04.455Z,26.68
2016-05-06T13:07:05.208Z,26.59
2016-05-06T13:08:05.758Z,27.06
2016-05-06T13:09:04.510Z,26.01
2016-05-06T13:10:04.701Z,25.92
2016-05-06T13:11:04.719Z,25.92
2016-05-06T13:12:05.518Z,25.82
2016-05-06T13:13:04.771Z,26.5